Time;durP1;ratioP1;P1;durP2;ratioP2;P2;SDS_P1;SDS_P2;PMS_P1;PMS_P2;Temp;Humidity;BMP_temperature;BMP_pressure;BME280_temperature;BME280_humidity;BME280_pressure;Samples;Min_cycle;Max_cycle;Signal;HPM_P1;HPM_P2
2023/03/17 00:05:39;;;;;;;9.77;3.60;;;;;;;5.12;53.61;101249.59;4825174;29;20225;-71
2023/03/17 00:08:21;;;;;;;8.52;3.17;;;;;;;5.05;54.35;101248.53;4826244;29;20617;-72
2023/03/17 00:10:59;;;;;;;5.93;4.60;;;;;;;5.03;54.33;101239.81;4831676;29;20292;-70
2023/03/17 00:13:36;;;;;;;5.10;3.33;;;;;;;5.02;54.35;101259.59;4826825;29;20232;-72
2023/03/17 00:16:27;;;;;;;5.93;3.80;;;;;;;4.95;54.75;101247.78;4832235;29;20217;-71
2023/03/17 00:19:00;;;;;;;7.30;4.10;;;;;;;5.00;54.47;101258.88;4807005;29;20736;-71
2023/03/17 00:21:52;;;;;;;4.65;3.75;;;;;;;4.95;55.09;101253.16;4825769;29;20205;-72
2023/03/17 00:24:28;;;;;;;6.40;3.45;;;;;;;4.94;54.84;101254.19;4810934;29;20233;-71
2023/03/17 00:27:16;;;;;;;7.18;4.20;;;;;;;4.93;55.10;101252.47;4828878;29;20212;-72
2023/03/17 00:33:39;;;;;;;9.02;4.60;;;;;;;4.91;55.29;101241.06;4843631;29;20224;-72
2023/03/17 00:36:24;;;;;;;6.60;3.92;;;;;;;4.88;55.11;101244.06;4837337;29;20217;-71
2023/03/17 00:39:06;;;;;;;7.45;4.50;;;;;;;4.91;54.78;101233.84;4825202;29;20231;-71
2023/03/17 00:50:21;;;;;;;7.57;3.65;;;;;;;4.92;55.16;101210.56;4843594;29;20201;-71
2023/03/17 00:53:02;;;;;;;4.55;4.13;;;;;;;4.90;54.87;101204.50;4829791;29;20808;-72
2023/03/17 00:55:53;;;;;;;8.43;5.55;;;;;;;4.95;55.03;101207.56;4826279;29;20693;-72
2023/03/17 01:01:26;;;;;;;7.55;3.95;;;;;;;4.97;54.68;101186.78;4823969;29;20317;-70
2023/03/17 01:04:03;;;;;;;7.47;4.32;;;;;;;4.91;55.12;101190.09;4826530;29;20205;-72
2023/03/17 01:06:42;;;;;;;6.85;4.22;;;;;;;4.80;55.16;101192.06;4829374;29;20198;-72
2023/03/17 01:09:33;;;;;;;7.07;4.55;;;;;;;4.89;55.45;101197.47;4827823;29;20235;-72
2023/03/17 01:12:26;;;;;;;5.72;3.53;;;;;;;4.75;55.19;101191.69;4839965;29;20214;-72
2023/03/17 01:17:58;;;;;;;10.45;4.65;;;;;;;4.91;55.09;101174.84;4839768;29;20580;-71
2023/03/17 01:20:36;;;;;;;10.02;5.03;;;;;;;4.93;55.04;101167.50;4824838;29;20289;-71
2023/03/17 01:23:33;;;;;;;13.75;4.07;;;;;;;4.95;55.21;101173.53;4818347;29;20303;-72
2023/03/17 01:26:12;;;;;;;5.53;5.03;;;;;;;4.87;55.35;101167.28;4829605;29;20229;-71
2023/03/17 01:28:53;;;;;;;3.90;3.28;;;;;;;4.96;55.34;101153.78;4808375;29;20226;-72
2023/03/17 01:31:38;;;;;;;6.43;4.35;;;;;;;5.00;54.97;101154.28;4818375;29;20218;-72
2023/03/17 01:34:27;;;;;;;11.30;6.07;;;;;;;5.13;54.99;101157.38;4839807;29;20228;-71
2023/03/17 01:37:20;;;;;;;8.52;5.50;;;;;;;5.02;54.85;101158.50;4825638;29;20269;-70
2023/03/17 01:39:57;;;;;;;8.00;4.63;;;;;;;4.97;55.02;101151.94;4812351;29;20613;-69
2023/03/17 01:42:37;;;;;;;12.27;5.20;;;;;;;5.07;55.10;101148.13;4827493;29;20689;-72
2023/03/17 01:45:54;;;;;;;7.45;4.28;;;;;;;5.05;55.63;101143.91;4824522;29;20273;-71
2023/03/17 01:48:52;;;;;;;4.78;4.10;;;;;;;5.08;55.35;101151.66;4825936;29;20572;-71
2023/03/17 01:51:41;;;;;;;5.22;3.97;;;;;;;5.01;56.55;101134.50;4830952;29;20277;-73
2023/03/17 01:54:29;;;;;;;9.02;5.60;;;;;;;5.02;55.92;101130.84;4836905;29;20218;-70
2023/03/17 01:57:11;;;;;;;10.05;4.90;;;;;;;5.06;55.50;101121.47;4824320;29;20661;-73
2023/03/17 01:59:54;;;;;;;7.10;4.97;;;;;;;5.07;55.58;101128.50;4824309;29;20292;-72
2023/03/17 02:02:33;;;;;;;10.07;5.28;;;;;;;4.94;55.94;101128.94;4814978;29;20189;-72
2023/03/17 02:05:31;;;;;;;6.75;5.13;;;;;;;4.74;56.57;101127.50;4826351;29;20761;-71
2023/03/17 02:08:13;;;;;;;8.45;4.90;;;;;;;4.84;56.49;101125.56;4830885;29;20271;-72
2023/03/17 02:11:16;;;;;;;6.80;5.03;;;;;;;4.79;56.73;101119.84;4838046;29;20227;-71
2023/03/17 02:13:52;;;;;;;6.13;4.47;;;;;;;4.89;56.42;101117.03;4828340;29;20569;-72
2023/03/17 02:16:31;;;;;;;5.43;4.53;;;;;;;4.88;56.90;101118.03;4843453;29;20270;-71
2023/03/17 02:19:03;;;;;;;7.50;5.47;;;;;;;4.79;56.95;101109.91;4829520;29;20221;-71
2023/03/17 02:22:06;;;;;;;11.05;5.47;;;;;;;4.78;57.00;101110.94;4819999;29;20232;-72
2023/03/17 02:24:47;;;;;;;10.70;4.80;;;;;;;4.88;57.06;101110.00;4850813;29;20219;-71
2023/03/17 02:27:45;;;;;;;9.45;5.57;;;;;;;4.90;57.27;101110.66;4832067;29;20348;-71
2023/03/17 02:30:49;;;;;;;4.82;4.25;;;;;;;4.77;56.86;101109.25;4820526;29;20205;-72
2023/03/17 02:33:26;;;;;;;6.35;4.70;;;;;;;4.80;56.38;101105.41;4823041;29;20551;-70
2023/03/17 02:36:04;;;;;;;11.15;4.60;;;;;;;4.82;57.39;101104.25;4827574;29;20275;-72
2023/03/17 02:38:45;;;;;;;5.47;4.85;;;;;;;4.91;56.79;101094.41;4842381;29;20291;-72
2023/03/17 02:41:23;;;;;;;7.32;5.18;;;;;;;4.92;56.49;101093.41;4840534;29;20212;-71
2023/03/17 02:43:57;;;;;;;10.52;5.20;;;;;;;4.83;56.33;101097.06;4804453;29;20210;-72
2023/03/17 02:46:41;;;;;;;6.40;5.20;;;;;;;4.81;56.63;101091.84;4827337;29;20213;-72
2023/03/17 02:49:19;;;;;;;5.95;4.35;;;;;;;4.80;56.64;101079.44;4831730;29;20307;-72
2023/03/17 02:51:57;;;;;;;8.10;5.75;;;;;;;4.78;56.31;101086.81;4831724;29;20205;-71
2023/03/17 02:54:42;;;;;;;9.20;4.53;;;;;;;4.79;56.24;101083.09;4815793;29;20220;-70
2023/03/17 02:57:17;;;;;;;8.75;4.70;;;;;;;4.86;56.12;101093.22;4818242;29;20607;-72
2023/03/17 03:32:16;;;;;;;6.97;5.30;;;;;;;4.96;55.80;101120.75;5068097;28;20195;-86
2023/03/17 03:41:24;;;;;;;9.27;4.93;;;;;;;4.93;55.58;101107.66;5670338;23;20238;-73
2023/03/17 03:43:55;;;;;;;13.13;5.38;;;;;;;4.97;55.82;101106.34;4950032;29;20205;-72
2023/03/17 03:46:25;;;;;;;6.35;4.43;;;;;;;4.97;55.38;101107.19;4968171;29;20209;-73
2023/03/17 03:48:55;;;;;;;7.60;4.75;;;;;;;4.93;55.51;101107.66;4934285;29;20248;-72
2023/03/17 03:51:30;;;;;;;7.70;5.25;;;;;;;4.96;55.69;101110.00;4931947;29;20631;-71
2023/03/17 03:54:00;;;;;;;4.70;4.25;;;;;;;4.92;55.57;101105.97;4944228;29;20218;-72
2023/03/17 03:56:32;;;;;;;7.72;5.03;;;;;;;4.81;55.30;101101.72;4953556;28;20187;-73
2023/03/17 03:59:04;;;;;;;11.27;4.57;;;;;;;4.91;55.78;101106.97;4951072;28;20234;-72
2023/03/17 04:01:37;;;;;;;9.30;4.25;;;;;;;4.92;55.13;101104.13;4928194;29;20223;-72
2023/03/17 04:04:07;;;;;;;6.50;5.30;;;;;;;4.84;55.47;101105.94;4939682;29;20270;-72
2023/03/17 04:06:36;;;;;;;9.50;5.85;;;;;;;4.73;55.63;101093.66;4918550;29;20698;-73
2023/03/17 04:09:07;;;;;;;8.27;5.90;;;;;;;4.88;55.48;101102.78;4917399;29;20223;-73
2023/03/17 04:11:37;;;;;;;5.57;5.05;;;;;;;4.91;55.28;101102.44;4936630;29;20179;-73
2023/03/17 04:14:11;;;;;;;8.30;4.40;;;;;;;4.77;55.29;101090.50;4919957;29;20235;-72
2023/03/17 04:16:41;;;;;;;9.18;4.35;;;;;;;4.89;55.08;101087.53;4921174;29;20211;-72
2023/03/17 04:19:14;;;;;;;7.05;4.72;;;;;;;4.84;54.90;101079.97;4921195;29;20224;-72
2023/03/17 04:21:43;;;;;;;6.68;5.32;;;;;;;4.81;55.13;101077.59;4934644;29;20199;-72
2023/03/17 04:24:13;;;;;;;8.68;5.18;;;;;;;4.84;54.74;101082.66;4916968;29;20195;-72
2023/03/17 04:26:43;;;;;;;10.50;5.15;;;;;;;4.78;55.36;101070.72;4903830;29;20230;-73
2023/03/17 04:29:14;;;;;;;6.82;6.00;;;;;;;4.76;55.20;101059.31;4920471;29;20218;-71
2023/03/17 04:31:44;;;;;;;8.57;5.50;;;;;;;4.76;55.03;101051.28;4922862;29;20708;-72
2023/03/17 04:34:15;;;;;;;7.75;5.57;;;;;;;4.67;55.59;101041.50;4923617;29;20224;-73
2023/03/17 04:36:45;;;;;;;11.73;4.90;;;;;;;4.81;55.22;101048.09;4906046;29;20199;-73
2023/03/17 04:39:18;;;;;;;8.00;4.13;;;;;;;4.80;56.63;101058.00;4905991;29;20202;-72
2023/03/17 04:41:47;;;;;;;7.38;5.05;;;;;;;4.82;56.33;101064.03;4920647;29;20218;-73
2023/03/17 04:44:17;;;;;;;17.70;6.55;;;;;;;4.67;55.61;101062.97;4904214;29;20199;-73
2023/03/17 04:46:47;;;;;;;9.32;5.95;;;;;;;4.62;55.59;101067.13;4903932;29;20599;-73
2023/03/17 04:49:16;;;;;;;6.25;4.38;;;;;;;4.60;55.38;101067.25;4903316;29;20608;-73
2023/03/17 04:51:45;;;;;;;7.43;3.90;;;;;;;4.75;55.19;101060.31;4918174;29;20625;-73
2023/03/17 04:54:15;;;;;;;8.95;6.07;;;;;;;4.73;54.89;101062.31;4902654;29;20226;-73
2023/03/17 04:56:44;;;;;;;8.10;4.45;;;;;;;4.63;55.22;101050.88;4919969;29;20196;-73
2023/03/17 04:59:14;;;;;;;8.60;4.93;;;;;;;4.60;54.95;101050.38;4902625;29;20216;-72
2023/03/17 05:01:45;;;;;;;9.18;4.40;;;;;;;4.66;54.54;101052.38;4919362;29;20259;-72
2023/03/17 05:04:15;;;;;;;8.25;4.93;;;;;;;4.64;54.42;101052.56;4920832;29;20199;-72
2023/03/17 05:06:58;;;;;;;10.70;4.70;;;;;;;4.73;54.43;101056.97;4935079;29;20195;-73
2023/03/17 05:09:28;;;;;;;8.57;4.60;;;;;;;4.68;54.52;101051.25;4906231;29;20290;-72
2023/03/17 05:11:57;;;;;;;6.55;4.30;;;;;;;4.62;54.46;101057.25;4902547;29;20227;-71
2023/03/17 05:14:26;;;;;;;6.75;5.38;;;;;;;4.49;54.76;101039.91;4906658;29;20307;-73
2023/03/17 05:16:57;;;;;;;6.50;4.90;;;;;;;4.69;54.79;101023.44;4911839;29;20264;-71
2023/03/17 05:19:26;;;;;;;9.65;5.38;;;;;;;4.76;54.67;101029.81;4910967;29;20208;-71
2023/03/17 05:22:00;;;;;;;5.47;3.67;;;;;;;4.78;53.85;101035.88;4905983;29;20223;-71
2023/03/17 05:24:29;;;;;;;9.65;5.45;;;;;;;4.77;53.96;101046.75;4902516;29;20202;-73
2023/03/17 05:26:58;;;;;;;9.13;4.03;;;;;;;4.73;54.25;101037.34;4901977;29;20211;-72
2023/03/17 05:29:28;;;;;;;10.68;4.60;;;;;;;4.77;53.96;101058.31;4901799;29;20236;-73
2023/03/17 05:31:58;;;;;;;5.28;4.40;;;;;;;4.73;53.63;101046.25;4902076;29;20215;-73
2023/03/17 05:34:27;;;;;;;9.02;4.57;;;;;;;4.88;53.73;101045.63;4925226;29;20703;-73
2023/03/17 05:36:56;;;;;;;8.93;5.18;;;;;;;4.80;53.59;101041.91;4924333;29;20196;-70
2023/03/17 05:39:26;;;;;;;5.80;4.57;;;;;;;4.91;53.21;101039.94;4901810;29;20302;-71
2023/03/17 05:41:56;;;;;;;7.15;4.30;;;;;;;4.92;52.65;101041.63;4901637;29;20215;-71
2023/03/17 05:44:25;;;;;;;5.97;4.65;;;;;;;4.98;53.00;101040.97;4901861;29;20227;-72
2023/03/17 05:46:54;;;;;;;10.57;3.95;;;;;;;4.93;52.57;101051.34;4891113;29;20292;-71
2023/03/17 05:49:25;;;;;;;7.20;4.20;;;;;;;4.94;52.53;101047.69;4917240;29;20210;-73
2023/03/17 05:51:54;;;;;;;5.22;3.92;;;;;;;4.85;52.86;101037.88;4917380;29;20204;-72
2023/03/17 05:54:24;;;;;;;7.03;4.45;;;;;;;5.09;52.52;101062.13;4924137;29;20244;-75
2023/03/17 05:56:53;;;;;;;7.20;4.70;;;;;;;5.14;52.62;101049.06;4919290;29;20200;-72
2023/03/17 05:59:22;;;;;;;10.88;6.07;;;;;;;4.97;52.39;101053.53;4912715;29;20214;-74
2023/03/17 06:01:51;;;;;;;4.47;3.75;;;;;;;5.01;51.98;101049.53;4902647;29;20204;-73
2023/03/17 06:04:20;;;;;;;8.77;4.13;;;;;;;5.00;51.68;101049.69;4917261;29;20206;-73
2023/03/17 06:06:51;;;;;;;6.32;4.13;;;;;;;5.11;51.66;101041.34;4902102;29;20250;-74
2023/03/17 06:09:20;;;;;;;7.57;4.65;;;;;;;5.09;51.90;101035.28;4916478;29;20673;-72
2023/03/17 06:11:50;;;;;;;7.13;4.47;;;;;;;5.30;51.40;101029.47;4900749;29;20584;-73
2023/03/17 06:14:19;;;;;;;5.80;3.75;;;;;;;5.36;51.41;101026.16;4905747;29;20212;-73
2023/03/17 06:16:49;;;;;;;10.85;4.30;;;;;;;5.38;51.06;101011.53;4903137;29;20208;-72
2023/03/17 06:19:18;;;;;;;6.95;4.00;;;;;;;5.35;50.71;101021.78;4901655;29;20207;-70
2023/03/17 06:21:48;;;;;;;9.13;5.53;;;;;;;5.41;51.40;101030.03;4901410;29;20204;-73
2023/03/17 06:24:19;;;;;;;6.68;4.50;;;;;;;5.47;50.36;101033.88;4907114;29;20203;-73
2023/03/17 06:26:48;;;;;;;6.88;4.13;;;;;;;5.48;50.25;101025.66;4911440;29;20606;-72
2023/03/17 06:29:19;;;;;;;6.93;3.90;;;;;;;5.42;50.40;101030.88;4910496;29;20227;-73
2023/03/17 06:31:49;;;;;;;5.63;4.15;;;;;;;5.43;50.30;101011.88;4911974;29;20206;-73
2023/03/17 06:34:20;;;;;;;5.95;4.10;;;;;;;5.40;50.78;101022.13;4899603;29;20223;-73
2023/03/17 06:36:50;;;;;;;5.80;3.88;;;;;;;5.45;50.57;101009.88;4916399;29;20252;-73
2023/03/17 06:39:21;;;;;;;5.88;3.50;;;;;;;5.56;50.53;101006.03;4900764;29;20209;-74
2023/03/17 06:41:50;;;;;;;11.73;4.35;;;;;;;5.57;50.28;101016.59;4901206;29;20207;-73
2023/03/17 06:44:20;;;;;;;7.35;4.45;;;;;;;5.59;50.31;101011.91;4900851;29;20590;-73
2023/03/17 06:46:49;;;;;;;6.63;4.93;;;;;;;5.63;49.97;101002.50;4916870;29;20213;-72
2023/03/17 06:49:18;;;;;;;8.25;5.53;;;;;;;5.54;50.29;100997.31;4917205;29;20208;-72
2023/03/17 06:51:47;;;;;;;9.15;5.72;;;;;;;5.72;50.12;100994.44;4918960;29;20207;-73
2023/03/17 06:54:17;;;;;;;10.48;4.13;;;;;;;5.81;49.73;100998.84;4902460;29;20644;-72
2023/03/17 06:56:47;;;;;;;4.90;4.05;;;;;;;5.68;49.81;100993.94;4906211;29;20216;-74
2023/03/17 06:59:17;;;;;;;5.25;4.05;;;;;;;5.83;49.67;101002.16;4907287;29;20241;-72
2023/03/17 07:01:47;;;;;;;5.03;3.47;;;;;;;5.94;49.77;100993.81;4903772;29;20219;-73
2023/03/17 07:04:17;;;;;;;9.05;4.63;;;;;;;5.99;49.41;101002.19;4902897;29;20633;-73
2023/03/17 07:06:46;;;;;;;9.25;4.13;;;;;;;6.14;48.90;100995.13;4902526;29;20277;-72
2023/03/17 07:09:16;;;;;;;6.93;4.40;;;;;;;6.19;48.39;101000.81;4901888;29;20234;-73
2023/03/17 07:11:47;;;;;;;5.93;3.60;;;;;;;6.11;49.05;101004.34;4918936;29;20275;-72
2023/03/17 07:14:16;;;;;;;11.73;4.90;;;;;;;6.22;48.36;100996.94;4902684;29;20236;-73
2023/03/17 07:16:46;;;;;;;7.10;4.28;;;;;;;6.24;48.45;100990.41;4906109;29;20491;-73
2023/03/17 07:19:15;;;;;;;7.40;4.88;;;;;;;6.18;48.34;100985.72;4911412;29;20282;-73
2023/03/17 07:21:45;;;;;;;6.75;4.85;;;;;;;6.26;48.48;100991.06;4917208;29;20211;-72
2023/03/17 07:24:15;;;;;;;6.90;4.97;;;;;;;6.37;48.22;100993.38;4923170;29;20268;-74
2023/03/17 07:26:45;;;;;;;5.82;3.65;;;;;;;6.50;47.81;100990.97;4900717;29;20208;-75
2023/03/17 07:29:16;;;;;;;6.82;3.92;;;;;;;6.73;47.78;100996.44;4902628;29;20667;-72
2023/03/17 07:31:45;;;;;;;7.68;4.20;;;;;;;6.74;47.00;100986.50;4917374;29;20188;-72
2023/03/17 07:34:15;;;;;;;9.85;4.57;;;;;;;7.06;47.05;100977.47;4899825;29;20613;-73
2023/03/17 07:36:44;;;;;;;5.97;4.80;;;;;;;7.25;46.49;100964.38;4916904;29;20213;-73
2023/03/17 07:39:14;;;;;;;7.40;4.10;;;;;;;7.26;46.11;100971.41;4916975;29;20275;-73
2023/03/17 07:41:45;;;;;;;8.07;4.40;;;;;;;7.43;45.71;100980.22;4899890;29;20266;-72
2023/03/17 07:44:16;;;;;;;8.32;4.35;;;;;;;7.43;45.43;100950.59;4899888;29;20670;-73
2023/03/17 07:46:45;;;;;;;8.88;5.40;;;;;;;7.44;45.44;100952.28;4916792;29;20195;-73
2023/03/17 07:52:44;;;;;;;11.35;4.93;;;;;;;7.49;45.30;100981.38;4902532;29;20743;-72
2023/03/17 07:55:14;;;;;;;6.25;4.05;;;;;;;7.62;45.47;100998.59;4895870;29;20216;-72
2023/03/17 07:57:44;;;;;;;16.85;4.57;;;;;;;7.81;45.21;100989.16;4910777;29;20608;-71
2023/03/17 08:00:16;;;;;;;8.45;5.28;;;;;;;7.74;44.57;100974.75;4902912;29;20199;-72
2023/03/17 08:02:46;;;;;;;6.97;3.90;;;;;;;7.74;44.42;100974.75;4918719;29;20206;-72
2023/03/17 08:05:35;;;;;;;8.35;5.25;;;;;;;7.86;44.16;100979.53;4920126;29;20203;-72
2023/03/17 08:08:05;;;;;;;6.85;4.30;;;;;;;8.05;44.02;100971.94;4931492;29;20211;-71
2023/03/17 08:10:34;;;;;;;5.78;4.55;;;;;;;8.26;43.72;100967.50;4918319;29;20222;-73
2023/03/17 08:13:04;;;;;;;6.95;4.63;;;;;;;8.78;43.88;100979.22;4912243;29;20210;-72
2023/03/17 08:15:35;;;;;;;5.30;4.75;;;;;;;8.68;41.95;100974.09;4934748;29;20591;-72
2023/03/17 08:18:05;;;;;;;6.80;4.35;;;;;;;8.55;42.28;100964.00;4920918;29;20318;-73
2023/03/17 08:20:36;;;;;;;11.05;5.22;;;;;;;8.62;42.30;100964.06;4928145;29;20267;-74
2023/03/17 08:23:06;;;;;;;7.90;4.35;;;;;;;8.84;42.45;100959.56;4914625;29;20206;-73
2023/03/17 08:25:35;;;;;;;7.65;4.78;;;;;;;8.70;41.83;100959.44;4896962;29;20207;-73
2023/03/17 08:28:05;;;;;;;8.32;4.85;;;;;;;8.73;41.61;100948.25;4920666;29;20220;-72
2023/03/17 08:30:37;;;;;;;5.70;4.10;;;;;;;8.91;41.25;100953.22;4925080;29;20298;-74
2023/03/17 08:33:07;;;;;;;5.13;3.42;;;;;;;8.99;40.95;100936.09;4902912;29;20298;-73
2023/03/17 08:35:40;;;;;;;7.50;3.63;;;;;;;8.85;41.13;100943.22;4907033;29;20235;-73
2023/03/17 08:38:10;;;;;;;6.57;3.90;;;;;;;8.91;40.84;100941.59;4903455;29;20300;-71
2023/03/17 08:40:41;;;;;;;6.40;4.55;;;;;;;8.82;41.40;100945.44;4903700;29;20210;-74
2023/03/17 08:43:13;;;;;;;11.98;7.00;;;;;;;8.96;41.03;100948.09;4910836;29;20209;-73
2023/03/17 08:45:44;;;;;;;9.98;5.75;;;;;;;8.79;41.42;100935.03;4911824;29;20203;-74
2023/03/17 08:48:15;;;;;;;7.63;5.15;;;;;;;8.90;41.28;100934.53;4918269;29;20229;-73
2023/03/17 08:50:44;;;;;;;5.65;4.60;;;;;;;8.80;41.29;100929.44;4918649;29;20196;-71
2023/03/17 08:53:14;;;;;;;7.20;4.93;;;;;;;8.95;41.54;100924.84;4936517;29;20299;-73
2023/03/17 08:55:43;;;;;;;6.30;4.97;;;;;;;9.08;41.49;100916.88;4908896;29;20687;-72
2023/03/17 08:58:12;;;;;;;15.55;5.25;;;;;;;9.12;40.98;100911.94;4936836;29;20741;-72
2023/03/17 09:00:45;;;;;;;7.45;5.20;;;;;;;9.26;40.94;100907.50;4934682;29;20720;-72
2023/03/17 09:03:15;;;;;;;4.70;4.20;;;;;;;9.19;40.88;100906.59;4906574;29;20206;-73
2023/03/17 09:05:44;;;;;;;10.25;5.20;;;;;;;9.22;41.01;100911.59;4930329;29;20191;-73
2023/03/17 09:08:13;;;;;;;5.55;3.80;;;;;;;9.16;40.72;100914.06;4930252;29;20227;-73
2023/03/17 09:10:43;;;;;;;7.35;4.20;;;;;;;9.45;40.69;100909.53;4922635;29;20224;-71
2023/03/17 09:13:12;;;;;;;7.68;4.20;;;;;;;9.70;40.49;100894.59;4908591;29;20293;-72
2023/03/17 09:15:46;;;;;;;6.30;3.93;;;;;;;10.05;39.75;100900.84;4907522;29;20215;-73
2023/03/17 09:18:20;;;;;;;9.53;3.77;;;;;;;10.13;39.55;100891.75;4919796;29;20981;-73
2023/03/17 09:20:50;;;;;;;11.70;4.60;;;;;;;10.22;39.50;100904.09;4921082;29;20470;-73
2023/03/17 09:23:22;;;;;;;6.27;4.43;;;;;;;10.23;39.62;100898.50;4914616;29;20463;-73
2023/03/17 09:25:52;;;;;;;6.10;4.70;;;;;;;10.26;39.30;100894.56;4918990;29;20439;-73
2023/03/17 09:28:22;;;;;;;9.57;5.50;;;;;;;10.77;39.33;100895.81;4901689;29;20455;-73
2023/03/17 09:30:57;;;;;;;6.50;4.17;;;;;;;10.44;38.92;100895.69;4919611;29;20436;-73
2023/03/17 09:33:27;;;;;;;5.50;4.97;;;;;;;10.48;38.97;100898.84;4902551;29;20479;-73
2023/03/17 09:35:56;;;;;;;7.53;5.07;;;;;;;10.74;39.04;100896.25;4917544;29;20479;-72
2023/03/17 09:38:27;;;;;;;5.77;4.27;;;;;;;10.74;38.92;100893.53;4901772;29;20442;-73
2023/03/17 09:41:03;;;;;;;6.50;4.00;;;;;;;10.66;39.19;100895.56;4918770;29;20462;-71
2023/03/17 09:43:40;;;;;;;8.30;5.30;;;;;;;10.54;38.97;100898.03;4917721;29;20864;-74
2023/03/17 09:46:24;;;;;;;7.10;4.20;;;;;;;10.81;38.73;100899.78;4920340;29;20862;-72
2023/03/17 09:48:59;;;;;;;11.60;5.50;;;;;;;11.16;38.86;100899.66;4908885;29;20452;-73
2023/03/17 09:51:30;;;;;;;6.60;4.17;;;;;;;11.65;38.56;100897.41;4932537;29;20512;-73
2023/03/17 09:54:02;;;;;;;5.83;4.30;;;;;;;11.47;37.77;100899.91;4933117;29;20418;-72
2023/03/17 09:56:34;;;;;;;7.80;4.90;;;;;;;11.43;37.73;100890.50;4900769;29;20459;-72
2023/03/17 09:59:07;;;;;;;9.90;4.93;;;;;;;11.61;37.41;100885.31;4902774;29;20492;-74
2023/03/17 10:01:42;;;;;;;6.00;4.07;;;;;;;11.80;37.39;100893.69;4907833;29;20430;-73
2023/03/17 10:04:12;;;;;;;6.60;4.83;;;;;;;11.86;36.57;100882.00;4916770;29;20534;-73
2023/03/17 10:06:45;;;;;;;8.40;4.57;;;;;;;11.91;36.26;100879.50;4901109;29;20452;-73
2023/03/17 10:09:25;;;;;;;6.77;5.00;;;;;;;12.37;36.11;100882.91;4916543;29;20483;-72
2023/03/17 10:12:04;;;;;;;14.07;5.20;;;;;;;12.34;36.01;100880.63;4904393;29;20465;-73
2023/03/17 10:14:44;;;;;;;5.90;3.83;;;;;;;11.93;36.65;100888.22;4948533;29;20452;-73
2023/03/17 10:17:18;;;;;;;6.80;4.97;;;;;;;11.81;36.93;100885.34;4940239;29;20458;-73
2023/03/17 10:19:54;;;;;;;5.47;3.73;;;;;;;11.92;36.51;100891.97;4919993;29;20453;-73
2023/03/17 10:22:29;;;;;;;8.17;4.73;;;;;;;11.98;36.68;100886.56;4899899;29;20789;-73
2023/03/17 10:25:02;;;;;;;5.87;3.70;;;;;;;11.91;36.71;100890.34;4901246;29;20448;-72
2023/03/17 10:27:36;;;;;;;5.40;4.40;;;;;;;12.06;36.51;100889.03;4901149;29;20455;-73
2023/03/17 10:30:20;;;;;;;5.73;4.23;;;;;;;12.50;35.98;100884.72;4917879;29;20407;-73
2023/03/17 10:32:52;;;;;;;8.13;3.97;;;;;;;12.40;35.88;100890.59;4919739;29;20814;-73
2023/03/17 10:35:25;;;;;;;6.00;3.87;;;;;;;12.28;36.04;100878.75;4917862;29;20447;-73
2023/03/17 10:37:54;;;;;;;9.40;4.47;;;;;;;12.19;35.99;100872.75;4903994;29;20460;-72
2023/03/17 10:40:44;;;;;;;5.67;4.13;;;;;;;12.28;36.11;100873.34;4912161;29;20932;-73
2023/03/17 10:43:19;;;;;;;4.43;3.80;;;;;;;12.46;36.19;100870.75;4901116;29;20457;-73
2023/03/17 10:45:58;;;;;;;5.30;3.87;;;;;;;12.48;36.00;100870.56;4919604;29;20788;-73
2023/03/17 10:48:30;;;;;;;9.53;5.80;;;;;;;12.76;35.93;100864.78;4900603;29;20446;-73
2023/03/17 10:51:00;;;;;;;7.17;4.97;;;;;;;12.86;36.41;100854.28;4917197;29;20504;-73
2023/03/17 10:53:36;;;;;;;7.10;4.70;;;;;;;13.24;35.51;100871.41;4917671;29;20457;-73
2023/03/17 10:56:09;;;;;;;6.13;4.00;;;;;;;13.45;34.32;100848.47;4905285;29;20447;-72
2023/03/17 10:58:43;;;;;;;3.83;3.20;;;;;;;13.38;34.96;100859.38;4916567;29;20524;-72
2023/03/17 11:01:20;;;;;;;6.47;4.47;;;;;;;13.28;35.22;100850.03;4918672;29;20553;-69
2023/03/17 11:03:51;;;;;;;5.13;4.27;;;;;;;13.35;34.94;100856.28;4901147;29;20947;-73
2023/03/17 11:06:31;;;;;;;5.80;4.30;;;;;;;13.28;34.76;100850.88;4903339;29;21008;-73
2023/03/17 11:09:08;;;;;;;6.70;4.27;;;;;;;13.30;35.05;100846.06;4925953;29;20483;-72
2023/03/17 11:11:44;;;;;;;4.00;3.30;;;;;;;13.34;34.79;100843.72;4901415;29;20516;-73
2023/03/17 11:14:17;;;;;;;3.50;3.20;;;;;;;13.38;34.72;100834.91;4912049;29;20432;-72
2023/03/17 11:16:54;;;;;;;6.13;3.57;;;;;;;13.62;35.06;100832.41;4899962;29;20470;-73
2023/03/17 11:19:34;;;;;;;9.23;4.70;;;;;;;13.70;34.37;100837.56;4901388;29;20884;-72
2023/03/17 11:22:10;;;;;;;6.20;3.43;;;;;;;13.66;34.65;100829.00;4899884;29;20439;-73
2023/03/17 11:24:47;;;;;;;5.80;4.33;;;;;;;13.69;35.00;100830.47;4913547;29;20495;-73
2023/03/17 11:27:27;;;;;;;6.77;3.40;;;;;;;13.85;34.28;100829.84;4916946;29;20431;-73
2023/03/17 11:30:15;;;;;;;4.77;4.37;;;;;;;13.99;33.94;100820.50;4900227;29;20462;-71
2023/03/17 11:32:55;;;;;;;6.50;4.50;;;;;;;13.92;34.30;100820.59;4896855;29;20456;-74
2023/03/17 11:35:44;;;;;;;7.30;4.00;;;;;;;14.20;34.31;100811.88;4901207;29;20518;-71
2023/03/17 11:38:31;;;;;;;6.87;4.93;;;;;;;14.72;33.92;100820.44;4927487;29;21003;-73
2023/03/17 11:41:41;;;;;;;7.17;4.10;;;;;;;14.50;33.65;100827.47;4927713;29;20462;-73
2023/03/17 11:44:40;;;;;;;4.77;3.67;;;;;;;14.50;33.08;100811.97;4928258;29;20432;-73
2023/03/17 11:47:19;;;;;;;3.90;3.03;;;;;;;14.71;33.21;100818.81;4909464;29;20433;-73
2023/03/17 11:49:54;;;;;;;4.23;3.10;;;;;;;15.01;33.25;100821.50;4901426;29;20493;-73
2023/03/17 11:52:29;;;;;;;4.67;4.20;;;;;;;15.01;33.15;100807.88;4920549;29;20904;-73
2023/03/17 11:55:08;;;;;;;5.70;3.43;;;;;;;14.76;33.80;100805.31;4903790;29;20495;-72
2023/03/17 11:57:46;;;;;;;3.93;3.53;;;;;;;14.77;33.27;100804.25;4911012;29;20818;-73
2023/03/17 12:00:26;;;;;;;5.10;3.67;;;;;;;14.88;33.26;100803.47;4927562;29;20432;-73
2023/03/17 12:02:59;;;;;;;5.80;3.03;;;;;;;14.54;33.29;100802.28;4920808;29;20927;-73
2023/03/17 12:05:30;;;;;;;7.80;4.60;;;;;;;14.47;33.59;100792.53;4920457;29;20530;-73
2023/03/17 12:08:05;;;;;;;4.77;3.67;;;;;;;14.38;34.24;100783.03;4921847;29;20494;-72
2023/03/17 12:10:39;;;;;;;4.67;3.97;;;;;;;14.64;34.22;100793.53;4917211;29;20429;-75
2023/03/17 12:13:15;;;;;;;6.23;3.53;;;;;;;14.24;34.08;100791.31;4928691;29;20784;-72
2023/03/17 12:15:51;;;;;;;7.23;4.07;;;;;;;14.39;34.18;100787.41;4911907;29;20438;-73
2023/03/17 12:18:29;;;;;;;5.57;3.93;;;;;;;14.27;34.17;100782.72;4930922;29;20459;-72
2023/03/17 12:21:07;;;;;;;5.07;3.20;;;;;;;14.30;34.24;100778.69;4932861;29;20463;-72
2023/03/17 12:23:46;;;;;;;4.70;3.10;;;;;;;14.20;33.89;100775.69;4927214;29;20410;-73
2023/03/17 12:26:19;;;;;;;5.43;3.33;;;;;;;14.25;34.54;100782.09;4926978;29;20438;-72
2023/03/17 12:28:52;;;;;;;6.00;3.17;;;;;;;14.48;34.62;100775.94;4909702;29;20447;-74
2023/03/17 12:31:28;;;;;;;6.00;4.10;;;;;;;14.46;34.00;100780.81;4925054;29;20422;-73
2023/03/17 12:34:07;;;;;;;5.23;3.33;;;;;;;14.35;34.14;100779.66;4908985;29;20455;-69
2023/03/17 12:36:38;;;;;;;7.33;4.93;;;;;;;14.38;34.32;100772.16;4909523;29;20462;-74
2023/03/17 12:39:12;;;;;;;6.63;3.60;;;;;;;14.51;34.04;100769.22;4917625;29;20454;-73
2023/03/17 12:42:08;;;;;;;5.10;3.27;;;;;;;14.45;33.84;100765.53;4924459;29;20495;-73
2023/03/17 12:45:00;;;;;;;5.53;3.80;;;;;;;14.64;33.66;100758.13;4914312;29;20499;-72
2023/03/17 12:47:43;;;;;;;5.53;3.37;;;;;;;14.67;33.85;100746.78;4902488;29;20814;-73
2023/03/17 12:50:40;;;;;;;5.20;2.97;;;;;;;14.61;33.80;100753.16;4902277;29;20434;-74
2023/03/17 12:53:29;;;;;;;7.67;2.63;;;;;;;14.70;33.64;100743.59;4903691;29;20446;-73
2023/03/17 12:56:09;;;;;;;7.93;3.70;;;;;;;14.66;34.01;100732.34;4905596;29;20426;-71
2023/03/17 12:58:43;;;;;;;3.90;2.63;;;;;;;14.75;33.94;100741.00;4913903;29;20448;-72
2023/03/17 13:01:24;;;;;;;5.17;3.60;;;;;;;14.77;34.11;100741.59;4906423;29;20425;-73
2023/03/17 13:04:14;;;;;;;4.20;3.03;;;;;;;14.79;34.02;100734.03;4901967;29;20919;-73
2023/03/17 13:06:47;;;;;;;3.53;2.53;;;;;;;14.90;34.03;100735.94;4919892;29;20624;-73
2023/03/17 13:09:44;;;;;;;3.17;2.87;;;;;;;14.88;33.85;100732.63;4918820;29;20448;-73
2023/03/17 13:12:51;;;;;;;5.17;3.03;;;;;;;15.21;33.35;100738.34;4915000;29;20437;-73